Green Lofoten — P3MG8 — position and weather

sailwx.info

Track history (hours):
 
Tides and Currents Weather Stations Pressure Air Temp Water Temp Dewpoint Dewpoint Depression Visibility Wind Speed Wind Dir Waves Ship Positions

Green Lofoten

Last reported at 2014-Oct-01 11:32 UTC. Time now 2014-Oct-01 12:17 UTC.
Position N 53°11' E 005°26'.

Length 98 m; draft 6.1 m.

Type: Cargo ship. MMSI: 212857000.

Date/timePositionNaut miles runAvg speedWind from/ knotsBaromVisibWave heightAir tempDewpointWater temp
2014-Oct-01 11:32N 53°11' E 005°26'0 0.0
2014-Oct-01 10:32N 53°11' E 005°26'0 0.0
2014-Oct-01 09:32N 53°11' E 005°26'0 0.0
2014-Oct-01 08:32N 53°11' E 005°26'0 0.0
2014-Oct-01 07:32N 53°11' E 005°26'0 0.0
2014-Oct-01 06:32N 53°11' E 005°26'0 0.0
2014-Oct-01 05:32N 53°11' E 005°26'0 0.0
2014-Oct-01 04:32N 53°11' E 005°26'0 0.0
2014-Oct-01 03:32N 53°11' E 005°26'0 0.0
2014-Oct-01 02:32N 53°11' E 005°26'0 0.0
2014-Oct-01 01:32N 53°11' E 005°26'0 0.0
2014-Oct-01 00:32N 53°11' E 005°26'0 0.0
2014-Sep-30 23:32N 53°11' E 005°26'0 0.0
2014-Sep-30 22:32N 53°11' E 005°26'0 0.0
2014-Sep-30 21:33N 53°11' E 005°26'1 0.9
2014-Sep-30 20:33N 53°10' E 005°24'7 7.2
2014-Sep-30 19:33N 53°14' E 005°14'8 7.7
2014-Sep-30 18:33N 53°19' E 005°05'9 8.5
2014-Sep-30 17:33N 53°19' E 004°51'7 7.3
2014-Sep-30 16:33N 53°21' E 004°39'27 8.4
2014-Sep-30 13:18N 53°48' E 004°44'7 9.2
2014-Sep-30 12:33N 53°54' E 004°47'10 9.0
2014-Sep-30 11:27N 54°04' E 004°52'10 9.2
2014-Sep-30 10:20N 54°14' E 004°51'  
2014-Sep-26 07:11N 61°41' E 004°38'  
2014-Sep-24 01:20N 59°05' E 004°51'1113.6
2014-Sep-24 00:33N 58°56' E 005°02'1313.4
2014-Sep-23 23:33N 58°45' E 005°15'1413.2
2014-Sep-23 22:30N 58°33' E 005°29'1313.8
2014-Sep-23 21:33N 58°23' E 005°46'1414.0
2014-Sep-23 20:33N 58°13' E 006°05'1413.8
2014-Sep-23 19:33N 58°03' E 006°23'14514.0
2014-Sep-23 09:14N 57°45' E 010°54'1014.2
2014-Sep-23 08:33N 57°38' E 011°06'1413.9
2014-Sep-23 07:34N 57°28' E 011°25'1414.0
2014-Sep-23 06:33N 57°15' E 011°34'1414.1
2014-Sep-23 05:33N 57°02' E 011°43'1414.0
2014-Sep-23 04:33N 56°49' E 011°52'1413.8
2014-Sep-23 03:32N 56°35' E 011°58'1313.6
2014-Sep-23 02:33N 56°22' E 012°03'1313.0
2014-Sep-23 01:33N 56°13' E 012°20'1413.9
2014-Sep-23 00:34N 56°04' E 012°39'1212.4
2014-Sep-22 23:34N 55°51' E 012°41'1312.6
2014-Sep-22 22:34N 55°39' E 012°42'1212.0
2014-Sep-22 21:33N 55°27' E 012°42'1211.6
2014-Sep-22 20:33N 55°16' E 012°51'1515.0
2014-Sep-22 19:33N 55°15' E 013°17'3315.2
2014-Sep-22 17:25N 55°14' E 014°14'1315.1
2014-Sep-22 16:33N 55°23' E 014°30'1615.0
2014-Sep-22 15:31N 55°31' E 014°53'4714.8
2014-Sep-22 12:19N 55°56' E 016°05'1214.6
2014-Sep-22 11:31N 56°01' E 016°24'31214.0
2014-Sep-21 13:16N 59°39' E 023°24'1014.0
2014-Sep-21 12:33N 59°41' E 023°43'  
Track history (hours):
 
Tides and Currents Weather Stations Pressure Air Temp Water Temp Dewpoint Dewpoint Depression Visibility Wind Speed Wind Dir Waves Ship Positions

Green Lofoten

Last reported at 2014-Oct-01 11:32 UTC. Time now 2014-Oct-01 12:17 UTC.
Position N 53°11' E 005°26'.

Length 98 m; draft 6.1 m.

Type: Cargo ship. MMSI: 212857000.

Date/timePositionNaut miles runAvg speedWind from/ knotsBaromVisibWave heightAir tempDewpointWater temp
2014-Oct-01 11:32N 53°11' E 005°26'0 0.0
2014-Oct-01 10:32N 53°11' E 005°26'0 0.0
2014-Oct-01 09:32N 53°11' E 005°26'0 0.0
2014-Oct-01 08:32N 53°11' E 005°26'0 0.0
2014-Oct-01 07:32N 53°11' E 005°26'0 0.0
2014-Oct-01 06:32N 53°11' E 005°26'0 0.0
2014-Oct-01 05:32N 53°11' E 005°26'0 0.0
2014-Oct-01 04:32N 53°11' E 005°26'0 0.0
2014-Oct-01 03:32N 53°11' E 005°26'0 0.0
2014-Oct-01 02:32N 53°11' E 005°26'0 0.0
2014-Oct-01 01:32N 53°11' E 005°26'0 0.0
2014-Oct-01 00:32N 53°11' E 005°26'0 0.0
2014-Sep-30 23:32N 53°11' E 005°26'0 0.0
2014-Sep-30 22:32N 53°11' E 005°26'0 0.0
2014-Sep-30 21:33N 53°11' E 005°26'1 0.9
2014-Sep-30 20:33N 53°10' E 005°24'7 7.2
2014-Sep-30 19:33N 53°14' E 005°14'8 7.7
2014-Sep-30 18:33N 53°19' E 005°05'9 8.5
2014-Sep-30 17:33N 53°19' E 004°51'7 7.3
2014-Sep-30 16:33N 53°21' E 004°39'27 8.4
2014-Sep-30 13:18N 53°48' E 004°44'7 9.2
2014-Sep-30 12:33N 53°54' E 004°47'10 9.0
2014-Sep-30 11:27N 54°04' E 004°52'10 9.2
2014-Sep-30 10:20N 54°14' E 004°51'  
2014-Sep-26 07:11N 61°41' E 004°38'  
2014-Sep-24 01:20N 59°05' E 004°51'1113.6
2014-Sep-24 00:33N 58°56' E 005°02'1313.4
2014-Sep-23 23:33N 58°45' E 005°15'1413.2
2014-Sep-23 22:30N 58°33' E 005°29'1313.8
2014-Sep-23 21:33N 58°23' E 005°46'1414.0
2014-Sep-23 20:33N 58°13' E 006°05'1413.8
2014-Sep-23 19:33N 58°03' E 006°23'14514.0
2014-Sep-23 09:14N 57°45' E 010°54'1014.2
2014-Sep-23 08:33N 57°38' E 011°06'1413.9
2014-Sep-23 07:34N 57°28' E 011°25'1414.0
2014-Sep-23 06:33N 57°15' E 011°34'1414.1
2014-Sep-23 05:33N 57°02' E 011°43'1414.0
2014-Sep-23 04:33N 56°49' E 011°52'1413.8
2014-Sep-23 03:32N 56°35' E 011°58'1313.6
2014-Sep-23 02:33N 56°22' E 012°03'1313.0
2014-Sep-23 01:33N 56°13' E 012°20'1413.9
2014-Sep-23 00:34N 56°04' E 012°39'1212.4
2014-Sep-22 23:34N 55°51' E 012°41'1312.6
2014-Sep-22 22:34N 55°39' E 012°42'1212.0
2014-Sep-22 21:33N 55°27' E 012°42'1211.6
2014-Sep-22 20:33N 55°16' E 012°51'1515.0
2014-Sep-22 19:33N 55°15' E 013°17'3315.2
2014-Sep-22 17:25N 55°14' E 014°14'1315.1
2014-Sep-22 16:33N 55°23' E 014°30'1615.0
2014-Sep-22 15:31N 55°31' E 014°53'4714.8
2014-Sep-22 12:19N 55°56' E 016°05'1214.6
2014-Sep-22 11:31N 56°01' E 016°24'31214.0
2014-Sep-21 13:16N 59°39' E 023°24'1014.0
2014-Sep-21 12:33N 59°41' E 023°43'  

Dump ship's entire track history